createdAt,value
2023-04-10T00:00:00.524Z,75.70
2023-04-10T00:01:00.473Z,76.12
2023-04-10T00:02:00.646Z,76.22
2023-04-10T00:03:00.617Z,76.01
2023-04-10T00:04:00.958Z,76.01
2023-04-10T00:05:00.431Z,76.12
2023-04-10T00:06:00.319Z,75.70
2023-04-10T00:07:00.288Z,75.39
2023-04-10T00:08:00.258Z,75.81
2023-04-10T00:09:00.245Z,76.22
2023-04-10T00:10:00.196Z,76.32
2023-04-10T00:11:00.187Z,75.60
2023-04-10T00:12:00.142Z,75.70
2023-04-10T00:13:00.128Z,75.70
2023-04-10T00:14:00.106Z,75.81
2023-04-10T00:15:00.047Z,75.81
2023-04-10T00:16:00.016Z,76.01
2023-04-10T00:17:00.006Z,76.43
2023-04-10T00:18:00.009Z,76.56
2023-04-10T00:18:59.926Z,76.46
2023-04-10T00:19:59.896Z,76.46
2023-04-10T00:20:59.864Z,76.53
2023-04-10T00:21:59.834Z,76.98
2023-04-10T00:22:59.812Z,76.67
2023-04-10T00:23:59.771Z,76.56
2023-04-10T00:24:59.762Z,76.84
2023-04-10T00:25:59.712Z,76.77
2023-04-10T00:26:59.680Z,76.87
2023-04-10T00:27:59.652Z,77.39
2023-04-10T00:28:59.622Z,77.08
2023-04-10T00:29:59.591Z,77.19
2023-04-10T00:30:59.562Z,77.19
2023-04-10T00:31:59.582Z,77.33
2023-04-10T00:32:59.577Z,77.19
2023-04-10T00:33:59.469Z,77.50
2023-04-10T00:34:59.437Z,77.64
2023-04-10T00:35:59.464Z,77.74
2023-04-10T00:36:59.377Z,77.74
2023-04-10T00:37:59.355Z,78.05
2023-04-10T00:38:59.316Z,78.05
2023-04-10T00:39:59.285Z,77.94
2023-04-10T00:40:59.275Z,77.94
2023-04-10T00:41:59.225Z,77.84
2023-04-10T00:42:59.195Z,78.25
2023-04-10T00:43:59.162Z,78.15
2023-04-10T00:44:59.144Z,77.94
2023-04-10T00:45:59.110Z,78.05
2023-04-10T00:46:59.073Z,79.08
2023-04-10T00:47:59.075Z,78.67
2023-04-10T00:48:59.009Z,78.56
2023-04-10T00:49:58.980Z,78.60
2023-04-10T00:50:59.003Z,78.91
2023-04-10T00:51:58.926Z,79.02
2023-04-10T00:52:58.887Z,79.02
2023-04-10T00:53:58.860Z,79.12
2023-04-10T00:54:58.831Z,78.67
2023-04-10T00:55:58.796Z,78.46
2023-04-10T00:56:58.783Z,78.81
2023-04-10T00:57:58.737Z,78.70
2023-04-10T00:58:58.705Z,79.63
2023-04-10T00:59:58.672Z,79.84
2023-04-10T01:00:58.713Z,79.63
2023-04-10T01:01:58.734Z,79.43
2023-04-10T01:02:58.758Z,79.43
2023-04-10T01:03:59.094Z,79.12
2023-04-10T01:04:58.523Z,79.33
2023-04-10T01:05:58.488Z,79.94
2023-04-10T01:06:58.456Z,79.84
2023-04-10T01:07:58.429Z,79.33
2023-04-10T01:08:58.393Z,79.53
2023-04-10T01:09:58.375Z,79.94
2023-04-10T01:10:58.332Z,79.98
2023-04-10T01:11:58.301Z,80.05
2023-04-10T01:12:58.304Z,80.08
2023-04-10T01:13:58.246Z,80.40
2023-04-10T01:14:58.208Z,80.57
2023-04-10T01:15:58.193Z,80.29
2023-04-10T01:16:58.163Z,79.77
2023-04-10T01:17:58.221Z,80.08
2023-04-10T01:18:58.088Z,80.19
2023-04-10T01:19:58.057Z,80.29
2023-04-10T01:20:58.033Z,80.29
2023-04-10T01:21:58.000Z,80.60
2023-04-10T01:22:57.994Z,80.08
2023-04-10T01:23:57.933Z,81.12
2023-04-10T01:24:57.910Z,80.81
2023-04-10T01:25:57.876Z,80.29
2023-04-10T01:26:57.840Z,80.81
2023-04-10T01:27:57.809Z,81.47
2023-04-10T01:28:57.795Z,81.12
2023-04-10T01:29:57.749Z,81.02
2023-04-10T01:30:57.865Z,80.81
2023-04-10T01:31:57.689Z,81.16
2023-04-10T01:32:57.676Z,80.43
2023-04-10T01:33:57.797Z,80.29
2023-04-10T01:34:57.608Z,80.64
2023-04-10T01:35:57.603Z,80.19
2023-04-10T01:36:57.662Z,80.60
2023-04-10T01:37:57.522Z,80.22
2023-04-10T01:38:57.506Z,80.43
2023-04-10T01:39:57.439Z,80.74
2023-04-10T01:40:57.412Z,80.43
2023-04-10T01:41:57.377Z,81.16
2023-04-10T01:42:57.350Z,81.37
2023-04-10T01:43:57.315Z,81.47
2023-04-10T01:44:57.310Z,80.95
2023-04-10T01:45:57.394Z,80.95
2023-04-10T01:46:57.223Z,81.30
2023-04-10T01:47:57.227Z,81.09
2023-04-10T01:48:57.162Z,81.26
2023-04-10T01:49:57.135Z,82.13
2023-04-10T01:50:57.102Z,81.40
2023-04-10T01:51:57.076Z,81.40
2023-04-10T01:52:57.038Z,81.51
2023-04-10T01:53:57.008Z,81.30
2023-04-10T01:54:56.977Z,81.57
2023-04-10T01:55:56.948Z,81.30
2023-04-10T01:56:56.913Z,81.09
2023-04-10T01:57:56.885Z,81.40
2023-04-10T01:58:56.861Z,82.03
2023-04-10T01:59:56.822Z,81.82
2023-04-10T02:00:56.813Z,81.51
2023-04-10T02:01:56.808Z,81.71
2023-04-10T02:02:56.813Z,81.71
2023-04-10T02:03:57.117Z,81.92
2023-04-10T02:04:56.706Z,81.82
2023-04-10T02:05:56.640Z,82.13
2023-04-10T02:06:56.603Z,82.54
2023-04-10T02:07:56.573Z,82.23
2023-04-10T02:08:56.541Z,82.48
2023-04-10T02:09:56.512Z,82.48
2023-04-10T02:10:56.479Z,81.92
2023-04-10T02:11:56.455Z,81.71
2023-04-10T02:12:56.417Z,81.71
2023-04-10T02:13:56.405Z,81.71
2023-04-10T02:14:56.352Z,81.85
2023-04-10T02:15:56.358Z,81.92
2023-04-10T02:16:56.360Z,81.92
2023-04-10T02:17:56.282Z,82.27
2023-04-10T02:18:56.234Z,82.17
2023-04-10T02:19:56.198Z,82.13
2023-04-10T02:20:56.181Z,82.48
2023-04-10T02:21:56.137Z,82.37
2023-04-10T02:22:56.105Z,82.13
2023-04-10T02:23:56.184Z,82.23
2023-04-10T02:24:56.043Z,82.23
2023-04-10T02:25:56.010Z,82.17
2023-04-10T02:26:55.981Z,81.96
2023-04-10T02:27:55.947Z,82.13
2023-04-10T02:28:55.926Z,82.06
2023-04-10T02:29:55.885Z,82.06
2023-04-10T02:30:55.905Z,82.58
2023-04-10T02:31:55.824Z,82.27
2023-04-10T02:32:55.833Z,82.17
2023-04-10T02:33:56.010Z,82.06
2023-04-10T02:34:55.730Z,82.58
2023-04-10T02:35:55.719Z,82.37
2023-04-10T02:36:55.668Z,82.89
2023-04-10T02:37:55.638Z,82.17
2023-04-10T02:38:55.604Z,82.58
2023-04-10T02:39:55.572Z,82.58
2023-04-10T02:40:55.545Z,82.79
2023-04-10T02:41:55.510Z,82.48
2023-04-10T02:42:55.489Z,82.79
2023-04-10T02:43:55.551Z,82.48
2023-04-10T02:44:55.418Z,82.37
2023-04-10T02:45:55.385Z,82.06
2023-04-10T02:46:55.372Z,82.37
2023-04-10T02:47:55.397Z,82.58
2023-04-10T02:48:55.325Z,82.37
2023-04-10T02:49:55.261Z,82.48
2023-04-10T02:50:55.231Z,82.82
2023-04-10T02:51:55.197Z,82.51
2023-04-10T02:52:55.192Z,82.79
2023-04-10T02:53:55.253Z,82.41
2023-04-10T02:54:55.107Z,83.45
2023-04-10T02:55:55.100Z,83.14
2023-04-10T02:56:55.048Z,84.07
2023-04-10T02:57:55.015Z,84.11
2023-04-10T02:58:54.981Z,83.90
2023-04-10T02:59:54.972Z,84.00
2023-04-10T03:00:54.919Z,84.63
2023-04-10T03:01:54.968Z,84.11
2023-04-10T03:02:55.018Z,84.52
2023-04-10T03:03:55.129Z,84.21
2023-04-10T03:04:54.864Z,84.94
2023-04-10T03:05:54.760Z,84.42
2023-04-10T03:06:54.732Z,85.39
2023-04-10T03:07:54.698Z,85.46
2023-04-10T03:08:54.671Z,84.98
2023-04-10T03:09:54.636Z,85.25
2023-04-10T03:10:54.613Z,85.81
2023-04-10T03:11:54.573Z,86.43
2023-04-10T03:12:54.549Z,84.88
2023-04-10T03:13:55.159Z,84.56
2023-04-10T03:14:54.487Z,84.73
2023-04-10T03:15:54.479Z,85.46
2023-04-10T03:16:54.419Z,85.14
2023-04-10T03:17:54.447Z,85.25
2023-04-10T03:18:54.360Z,85.39
2023-04-10T03:19:54.339Z,85.60
2023-04-10T03:20:54.321Z,85.08
2023-04-10T03:21:54.312Z,85.60
2023-04-10T03:22:54.238Z,86.05
2023-04-10T03:23:54.333Z,86.88
2023-04-10T03:24:54.172Z,86.99
2023-04-10T03:25:54.135Z,87.40
2023-04-10T03:26:54.111Z,87.40
2023-04-10T03:27:54.074Z,87.61
2023-04-10T03:28:54.044Z,87.71
2023-04-10T03:29:54.011Z,87.51
2023-04-10T03:30:53.986Z,87.40
2023-04-10T03:31:54.014Z,87.86
2023-04-10T03:32:53.929Z,87.82
2023-04-10T03:33:54.126Z,87.34
2023-04-10T03:34:53.858Z,87.30
2023-04-10T03:35:53.872Z,87.51
2023-04-10T03:36:53.813Z,87.19
2023-04-10T03:37:53.770Z,87.40
2023-04-10T03:38:53.739Z,87.30
2023-04-10T03:39:53.701Z,87.40
2023-04-10T03:40:53.671Z,87.30
2023-04-10T03:41:53.646Z,87.96
2023-04-10T03:42:53.611Z,87.92
2023-04-10T03:43:53.938Z,87.86
2023-04-10T03:44:53.545Z,87.76
2023-04-10T03:45:53.512Z,88.17
2023-04-10T03:46:53.654Z,88.38
2023-04-10T03:47:53.476Z,88.31
2023-04-10T03:48:53.422Z,89.04
2023-04-10T03:49:53.389Z,88.84
2023-04-10T03:50:53.358Z,89.04
2023-04-10T03:51:53.325Z,89.08
2023-04-10T03:52:53.324Z,88.77
2023-04-10T03:53:53.720Z,89.70
2023-04-10T03:54:53.232Z,89.60
2023-04-10T03:55:53.200Z,89.60
2023-04-10T03:56:53.182Z,89.92
2023-04-10T03:57:53.141Z,89.70
2023-04-10T03:58:53.110Z,90.33
2023-04-10T03:59:53.074Z,90.33
2023-04-10T04:00:53.045Z,89.29
2023-04-10T04:01:53.049Z,89.50
2023-04-10T04:02:53.132Z,89.39
2023-04-10T04:03:53.474Z,89.39
2023-04-10T04:04:52.960Z,89.29
2023-04-10T04:05:52.911Z,90.33
2023-04-10T04:06:52.864Z,90.33
2023-04-10T04:07:52.826Z,90.64
2023-04-10T04:08:52.819Z,91.47
2023-04-10T04:09:54.214Z,90.44
2023-04-10T04:10:52.735Z,91.47
2023-04-10T04:11:52.725Z,90.85
2023-04-10T04:12:52.675Z,91.06
2023-04-10T04:13:52.947Z,90.75
2023-04-10T04:14:52.606Z,91.37
2023-04-10T04:15:52.584Z,90.79
2023-04-10T04:16:52.576Z,91.20
2023-04-10T04:17:52.546Z,91.20
2023-04-10T04:18:52.483Z,91.10
2023-04-10T04:19:52.469Z,91.41
2023-04-10T04:20:52.429Z,91.10
2023-04-10T04:21:52.391Z,91.52
2023-04-10T04:22:52.360Z,90.79
2023-04-10T04:23:52.702Z,91.35
2023-04-10T04:24:52.314Z,91.87
2023-04-10T04:25:52.264Z,91.56
2023-04-10T04:26:52.232Z,91.97
2023-04-10T04:27:52.205Z,92.03
2023-04-10T04:28:52.169Z,91.31
2023-04-10T04:29:52.138Z,91.46
2023-04-10T04:30:52.107Z,91.41
2023-04-10T04:31:52.100Z,91.20
2023-04-10T04:32:52.097Z,91.10
2023-04-10T04:33:52.227Z,91.10
2023-04-10T04:34:51.984Z,90.89
2023-04-10T04:35:51.985Z,91.00
2023-04-10T04:36:51.931Z,90.02
2023-04-10T04:37:51.889Z,89.60
2023-04-10T04:38:51.859Z,89.70
2023-04-10T04:39:51.840Z,89.50
2023-04-10T04:40:51.817Z,89.29
2023-04-10T04:41:51.775Z,89.50
2023-04-10T04:42:51.732Z,90.23
2023-04-10T04:43:51.911Z,89.70
2023-04-10T04:44:51.668Z,89.70
2023-04-10T04:45:51.691Z,89.70
2023-04-10T04:46:51.609Z,89.50
2023-04-10T04:47:51.583Z,89.81
2023-04-10T04:48:51.545Z,89.36
2023-04-10T04:49:51.512Z,89.50
2023-04-10T04:50:51.481Z,89.15
2023-04-10T04:51:51.448Z,89.70
2023-04-10T04:52:51.422Z,89.46
2023-04-10T04:53:51.398Z,89.56
2023-04-10T04:54:51.354Z,89.67
2023-04-10T04:55:51.321Z,89.46
2023-04-10T04:56:51.318Z,89.25
2023-04-10T04:57:51.261Z,88.79
2023-04-10T04:58:51.271Z,88.79
2023-04-10T04:59:51.196Z,88.90
2023-04-10T05:00:51.208Z,88.79
2023-04-10T05:01:51.296Z,88.23
2023-04-10T05:02:51.272Z,88.13
2023-04-10T05:03:51.148Z,88.54
2023-04-10T05:04:51.040Z,88.65
2023-04-10T05:05:51.006Z,88.85
2023-04-10T05:06:50.978Z,88.13
2023-04-10T05:07:50.939Z,88.34
2023-04-10T05:08:50.909Z,87.82
2023-04-10T05:09:50.881Z,87.82
2023-04-10T05:10:50.848Z,87.82
2023-04-10T05:11:50.816Z,87.47
2023-04-10T05:12:50.802Z,86.85
2023-04-10T05:13:50.749Z,86.74
2023-04-10T05:14:50.719Z,87.05
2023-04-10T05:15:50.713Z,87.40
2023-04-10T05:16:50.655Z,87.16
2023-04-10T05:17:50.664Z,87.26
2023-04-10T05:18:50.619Z,87.26
2023-04-10T05:19:50.560Z,86.54
2023-04-10T05:20:50.536Z,87.05
2023-04-10T05:21:50.504Z,86.43
2023-04-10T05:22:50.473Z,87.22
2023-04-10T05:23:50.436Z,86.91
2023-04-10T05:24:50.402Z,86.49
2023-04-10T05:25:50.369Z,86.95
2023-04-10T05:26:50.357Z,86.43
2023-04-10T05:27:50.304Z,86.18
2023-04-10T05:28:50.298Z,86.95
2023-04-10T05:29:50.244Z,86.64
2023-04-10T05:30:50.241Z,86.02
2023-04-10T05:31:52.120Z,87.01
2023-04-10T05:32:50.166Z,87.16
2023-04-10T05:33:50.120Z,86.91
2023-04-10T05:34:50.089Z,86.33
2023-04-10T05:35:50.076Z,86.54
2023-04-10T05:36:50.044Z,86.60
2023-04-10T05:37:49.996Z,86.49
2023-04-10T05:38:49.978Z,85.87
2023-04-10T05:39:49.928Z,86.60
2023-04-10T05:40:49.899Z,86.80
2023-04-10T05:41:49.871Z,86.70
2023-04-10T05:42:49.841Z,86.60
2023-04-10T05:43:49.805Z,86.39
2023-04-10T05:44:49.796Z,86.60
2023-04-10T05:45:49.742Z,86.87
2023-04-10T05:46:49.777Z,86.97
2023-04-10T05:47:49.733Z,87.22
2023-04-10T05:48:49.659Z,87.12
2023-04-10T05:49:49.618Z,86.45
2023-04-10T05:50:49.587Z,86.35
2023-04-10T05:51:49.562Z,87.01
2023-04-10T05:52:49.543Z,87.18
2023-04-10T05:53:49.494Z,86.55
2023-04-10T05:54:49.463Z,86.25
2023-04-10T05:55:49.430Z,86.35
2023-04-10T05:56:49.404Z,86.45
2023-04-10T05:57:49.367Z,86.15
2023-04-10T05:58:49.336Z,87.49
2023-04-10T05:59:49.307Z,87.07
2023-04-10T06:00:49.293Z,86.52
2023-04-10T06:01:49.247Z,86.15
2023-04-10T06:02:49.292Z,86.31
2023-04-10T06:03:49.351Z,86.41
2023-04-10T06:04:49.402Z,86.41
2023-04-10T06:05:49.125Z,86.41
2023-04-10T06:06:49.097Z,86.21
2023-04-10T06:07:49.055Z,86.52
2023-04-10T06:08:49.025Z,85.79
2023-04-10T06:09:49.025Z,86.58
2023-04-10T06:10:48.972Z,85.27
2023-04-10T06:11:48.934Z,85.86
2023-04-10T06:12:48.901Z,85.86
2023-04-10T06:13:48.877Z,85.03
2023-04-10T06:14:48.841Z,85.17
2023-04-10T06:15:48.823Z,85.38
2023-04-10T06:16:48.803Z,85.34
2023-04-10T06:17:48.761Z,85.75
2023-04-10T06:18:48.715Z,85.65
2023-04-10T06:19:48.684Z,85.13
2023-04-10T06:20:48.655Z,85.65
2023-04-10T06:21:48.632Z,85.13
2023-04-10T06:22:48.594Z,84.30
2023-04-10T06:23:48.560Z,84.51
2023-04-10T06:24:48.532Z,83.99
2023-04-10T06:25:48.500Z,83.78
2023-04-10T06:26:48.470Z,83.89
2023-04-10T06:27:48.451Z,83.47
2023-04-10T06:28:48.406Z,84.16
2023-04-10T06:29:48.376Z,83.89
2023-04-10T06:30:48.348Z,83.85
2023-04-10T06:31:48.341Z,83.89
2023-04-10T06:32:48.322Z,83.89
2023-04-10T06:33:48.255Z,84.09
2023-04-10T06:34:48.227Z,83.23
2023-04-10T06:35:48.248Z,82.65
2023-04-10T06:36:48.168Z,82.81
2023-04-10T06:37:48.146Z,82.50
2023-04-10T06:38:48.102Z,82.86
2023-04-10T06:39:48.097Z,82.95
2023-04-10T06:40:48.039Z,83.44
2023-04-10T06:41:48.010Z,83.89
2023-04-10T06:42:47.981Z,84.06
2023-04-10T06:43:48.009Z,83.33
2023-04-10T06:44:47.917Z,82.71
2023-04-10T06:45:47.887Z,82.09
2023-04-10T06:46:47.888Z,82.50
2023-04-10T06:47:47.864Z,82.19
2023-04-10T06:48:47.814Z,82.29
2023-04-10T06:49:47.764Z,82.40
2023-04-10T06:50:47.741Z,82.50
2023-04-10T06:51:47.701Z,81.74
2023-04-10T06:52:47.906Z,82.36
2023-04-10T06:53:47.641Z,82.46
2023-04-10T06:54:47.609Z,81.74
2023-04-10T06:55:47.577Z,81.70
2023-04-10T06:56:47.548Z,80.91
2023-04-10T06:57:47.518Z,81.60
2023-04-10T06:58:47.484Z,81.33
2023-04-10T06:59:47.464Z,81.09
2023-04-10T07:00:47.469Z,80.46
2023-04-10T07:01:47.410Z,81.25
2023-04-10T07:02:47.394Z,81.35
2023-04-10T07:03:47.362Z,81.25
2023-04-10T07:04:47.316Z,80.43
2023-04-10T07:05:47.362Z,81.15
2023-04-10T07:06:47.239Z,79.80
2023-04-10T07:07:47.215Z,80.43
2023-04-10T07:08:47.178Z,79.49
2023-04-10T07:09:47.145Z,79.91
2023-04-10T07:10:47.113Z,79.70
2023-04-10T07:11:47.084Z,79.97
2023-04-10T07:12:47.054Z,80.18
2023-04-10T07:13:47.032Z,79.46
2023-04-10T07:14:46.992Z,80.11
2023-04-10T07:15:46.964Z,80.43
2023-04-10T07:16:46.961Z,81.42
2023-04-10T07:17:46.937Z,80.29
2023-04-10T07:18:47.591Z,80.08
2023-04-10T07:19:46.852Z,80.08
2023-04-10T07:20:46.854Z,79.97
2023-04-10T07:21:46.780Z,80.08
2023-04-10T07:22:46.746Z,79.87
2023-04-10T07:23:46.721Z,79.52
2023-04-10T07:24:46.689Z,79.83
2023-04-10T07:25:46.657Z,78.91
2023-04-10T07:26:46.635Z,79.32
2023-04-10T07:27:46.595Z,79.73
2023-04-10T07:28:46.564Z,79.38
2023-04-10T07:29:46.533Z,78.25
2023-04-10T07:30:46.502Z,78.25
2023-04-10T07:31:46.554Z,78.66
2023-04-10T07:32:46.604Z,78.66
2023-04-10T07:33:46.430Z,79.69
2023-04-10T07:34:46.378Z,78.94
2023-04-10T07:35:46.391Z,79.04
2023-04-10T07:36:46.338Z,78.11
2023-04-10T07:37:46.289Z,78.11
2023-04-10T07:38:46.258Z,77.59
2023-04-10T07:39:46.229Z,78.11
2023-04-10T07:40:46.203Z,77.80
2023-04-10T07:41:46.173Z,78.18
2023-04-10T07:42:46.134Z,78.08
2023-04-10T07:43:46.127Z,76.90
2023-04-10T07:44:46.077Z,77.52
2023-04-10T07:45:46.088Z,77.01
2023-04-10T07:46:46.028Z,76.15
2023-04-10T07:47:46.030Z,75.98
2023-04-10T07:48:45.956Z,76.59
2023-04-10T07:49:45.926Z,76.84
2023-04-10T07:50:45.902Z,77.04
2023-04-10T07:51:45.867Z,76.94
2023-04-10T07:52:45.871Z,77.31
2023-04-10T07:53:45.804Z,76.39
2023-04-10T07:54:45.773Z,77.01
2023-04-10T07:55:45.746Z,76.97
2023-04-10T07:56:45.719Z,76.66
2023-04-10T07:57:45.698Z,76.93
2023-04-10T07:58:45.660Z,75.70
2023-04-10T07:59:45.624Z,75.90
2023-04-10T08:00:45.593Z,76.73
2023-04-10T08:01:45.586Z,75.15
2023-04-10T08:02:45.627Z,75.35
2023-04-10T08:03:45.674Z,74.12
2023-04-10T08:04:45.576Z,74.63
2023-04-10T08:05:45.451Z,75.42
2023-04-10T08:06:45.414Z,74.70
2023-04-10T08:07:45.385Z,73.36
2023-04-10T08:08:45.370Z,73.81
2023-04-10T08:09:45.335Z,73.30
2023-04-10T08:10:45.302Z,73.61
2023-04-10T08:11:45.268Z,74.12
2023-04-10T08:12:45.232Z,73.26
2023-04-10T08:13:45.209Z,74.43
2023-04-10T08:14:45.216Z,74.53
2023-04-10T08:15:45.149Z,74.95
2023-04-10T08:16:45.173Z,75.05
2023-04-10T08:17:45.100Z,74.29
2023-04-10T08:18:45.057Z,73.26
2023-04-10T08:19:45.024Z,73.06
2023-04-10T08:20:44.999Z,73.47
2023-04-10T08:21:44.978Z,73.74
2023-04-10T08:22:44.937Z,72.24
2023-04-10T08:23:44.908Z,72.92
2023-04-10T08:24:44.899Z,71.69
2023-04-10T08:25:44.849Z,70.35
2023-04-10T08:26:44.817Z,70.94
2023-04-10T08:27:44.788Z,71.55
2023-04-10T08:28:44.758Z,71.41
2023-04-10T08:29:44.728Z,71.31
2023-04-10T08:30:44.761Z,69.80
2023-04-10T08:31:44.684Z,70.32
2023-04-10T08:32:44.694Z,70.83
2023-04-10T08:33:44.656Z,70.21
2023-04-10T08:34:44.586Z,71.24
2023-04-10T08:35:44.578Z,70.28
2023-04-10T08:36:44.551Z,69.98
2023-04-10T08:37:49.678Z,69.46
2023-04-10T08:38:44.476Z,69.64
2023-04-10T08:39:44.435Z,69.12
2023-04-10T08:40:44.703Z,68.91
2023-04-10T08:41:44.381Z,68.78
2023-04-10T08:42:44.352Z,69.50
2023-04-10T08:43:44.318Z,68.37
2023-04-10T08:44:44.290Z,67.65
2023-04-10T08:45:44.292Z,68.78
2023-04-10T08:46:44.238Z,67.72
2023-04-10T08:47:44.240Z,68.44
2023-04-10T08:48:44.173Z,67.62
2023-04-10T08:49:44.146Z,66.36
2023-04-10T08:50:44.128Z,67.69
2023-04-10T08:51:44.147Z,65.64
2023-04-10T08:52:44.065Z,66.25
2023-04-10T08:53:44.027Z,66.56
2023-04-10T08:54:43.998Z,66.16
2023-04-10T08:55:43.971Z,65.12
2023-04-10T08:56:43.960Z,65.95
2023-04-10T08:57:50.949Z,65.84
2023-04-10T08:58:43.881Z,65.61
2023-04-10T08:59:43.853Z,65.81
2023-04-10T09:00:43.824Z,66.30
2023-04-10T09:01:43.874Z,65.48
2023-04-10T09:02:43.927Z,64.86
2023-04-10T09:03:43.923Z,64.01
2023-04-10T09:04:43.740Z,62.88
2023-04-10T09:05:43.689Z,62.88
2023-04-10T09:06:43.652Z,64.53
2023-04-10T09:07:43.624Z,65.42
2023-04-10T09:08:43.601Z,64.12
2023-04-10T09:09:43.569Z,64.32
2023-04-10T09:10:43.544Z,64.22
2023-04-10T09:11:43.511Z,65.42
2023-04-10T09:12:43.515Z,63.91
2023-04-10T09:13:43.459Z,64.09
2023-04-10T09:14:43.434Z,62.27
2023-04-10T09:15:43.418Z,64.70
2023-04-10T09:16:43.369Z,63.78
2023-04-10T09:17:43.364Z,62.73
2023-04-10T09:18:43.344Z,62.32
2023-04-10T09:19:43.285Z,62.01
2023-04-10T09:20:43.251Z,62.11
2023-04-10T09:21:43.225Z,61.70
2023-04-10T09:22:43.195Z,62.01
2023-04-10T09:23:43.169Z,61.77
2023-04-10T09:24:43.138Z,62.29
2023-04-10T09:25:43.111Z,60.03
2023-04-10T09:26:43.091Z,60.65
2023-04-10T09:27:43.053Z,61.47
2023-04-10T09:28:43.045Z,60.35
2023-04-10T09:29:43.007Z,61.65
2023-04-10T09:30:42.970Z,60.42
2023-04-10T09:31:43.142Z,61.06
2023-04-10T09:32:43.015Z,60.35
2023-04-10T09:33:42.888Z,61.98
2023-04-10T09:34:42.872Z,61.24
2023-04-10T09:35:42.828Z,60.31
2023-04-10T09:36:42.821Z,59.88
2023-04-10T09:37:42.798Z,59.57
2023-04-10T09:38:42.747Z,59.67
2023-04-10T09:39:42.716Z,59.75
2023-04-10T09:40:42.695Z,57.50
2023-04-10T09:41:42.661Z,58.70
2023-04-10T09:42:42.635Z,57.29
2023-04-10T09:43:42.606Z,57.53
2023-04-10T09:44:42.596Z,57.70
2023-04-10T09:45:42.551Z,59.03
2023-04-10T09:46:42.558Z,59.85
2023-04-10T09:47:42.531Z,57.29
2023-04-10T09:48:42.467Z,57.68
2023-04-10T09:49:42.441Z,58.91
2023-04-10T09:50:42.409Z,57.88
2023-04-10T09:51:42.393Z,58.50
2023-04-10T09:52:42.369Z,58.78
2023-04-10T09:53:42.331Z,57.04
2023-04-10T09:54:42.303Z,57.78
2023-04-10T09:55:42.328Z,57.04
2023-04-10T09:56:42.247Z,57.75
2023-04-10T09:57:42.230Z,57.75
2023-04-10T09:58:42.194Z,57.04
2023-04-10T09:59:43.054Z,56.23
2023-04-10T10:00:42.172Z,57.14
2023-04-10T10:01:42.159Z,58.06
2023-04-10T10:02:42.336Z,56.81
2023-04-10T10:03:42.080Z,56.71
2023-04-10T10:04:42.038Z,56.78
2023-04-10T10:05:42.015Z,57.19
2023-04-10T10:06:41.976Z,56.55
2023-04-10T10:07:41.953Z,55.41
2023-04-10T10:08:41.928Z,55.30
2023-04-10T10:09:41.900Z,55.30
2023-04-10T10:10:41.895Z,55.22
2023-04-10T10:11:41.841Z,55.20
2023-04-10T10:12:41.812Z,54.51
2023-04-10T10:13:41.791Z,55.63
2023-04-10T10:14:41.759Z,55.02
2023-04-10T10:15:41.736Z,56.65
2023-04-10T10:16:41.926Z,56.02
2023-04-10T10:17:41.734Z,56.83
2023-04-10T10:18:41.654Z,54.90
2023-04-10T10:19:41.627Z,54.21
2023-04-10T10:20:41.601Z,54.72
2023-04-10T10:21:41.583Z,53.39
2023-04-10T10:22:41.557Z,54.72
2023-04-10T10:23:41.523Z,56.04
2023-04-10T10:24:41.497Z,55.20
2023-04-10T10:25:41.479Z,53.67
2023-04-10T10:26:41.443Z,55.58
2023-04-10T10:27:41.431Z,54.28
2023-04-10T10:28:41.392Z,54.66
2023-04-10T10:29:41.370Z,53.83
2023-04-10T10:30:41.338Z,53.34
2023-04-10T10:31:41.352Z,54.36
2023-04-10T10:32:41.368Z,52.91
2023-04-10T10:33:41.270Z,54.24
2023-04-10T10:34:41.233Z,53.02
2023-04-10T10:35:41.211Z,53.39
2023-04-10T10:36:41.286Z,52.50
2023-04-10T10:37:41.156Z,52.37
2023-04-10T10:38:41.138Z,53.80
2023-04-10T10:39:41.103Z,53.02
2023-04-10T10:40:41.079Z,53.11
2023-04-10T10:41:41.058Z,52.71
2023-04-10T10:42:41.035Z,53.83
2023-04-10T10:43:40.999Z,53.29
2023-04-10T10:44:40.972Z,54.00
2023-04-10T10:45:40.964Z,54.21
2023-04-10T10:46:40.918Z,54.59
2023-04-10T10:47:40.901Z,51.84
2023-04-10T10:48:40.892Z,52.76
2023-04-10T10:49:40.844Z,52.45
2023-04-10T10:50:40.814Z,53.06
2023-04-10T10:51:40.811Z,53.04
2023-04-10T10:52:40.759Z,51.92
2023-04-10T10:53:40.764Z,52.43
2023-04-10T10:54:53.583Z,52.00
2023-04-10T10:55:40.696Z,52.48
2023-04-10T10:56:40.672Z,51.75
2023-04-10T10:57:40.631Z,50.60
2023-04-10T10:58:40.607Z,50.31
2023-04-10T10:59:40.580Z,49.82
2023-04-10T11:00:40.555Z,50.53
2023-04-10T11:01:40.700Z,50.93
2023-04-10T11:02:40.667Z,51.93
2023-04-10T11:03:40.669Z,53.14
2023-04-10T11:04:40.496Z,51.42
2023-04-10T11:05:40.426Z,50.51
2023-04-10T11:06:40.788Z,49.49
2023-04-10T11:07:40.375Z,49.69
2023-04-10T11:08:40.350Z,49.90
2023-04-10T11:09:40.324Z,51.42
2023-04-10T11:10:40.300Z,50.86
2023-04-10T11:11:40.272Z,50.04
2023-04-10T11:12:40.247Z,50.56
2023-04-10T11:13:40.223Z,50.63
2023-04-10T11:14:40.254Z,51.34
2023-04-10T11:15:40.170Z,51.57
2023-04-10T11:16:40.178Z,50.12
2023-04-10T11:17:40.168Z,51.65
2023-04-10T11:18:40.095Z,50.12
2023-04-10T11:19:40.076Z,49.31
2023-04-10T11:20:40.062Z,50.63
2023-04-10T11:21:40.025Z,50.81
2023-04-10T11:22:39.993Z,51.42
2023-04-10T11:23:39.968Z,50.48
2023-04-10T11:24:39.943Z,50.26
2023-04-10T11:25:39.918Z,48.74
2023-04-10T11:26:39.901Z,47.95
2023-04-10T11:27:39.917Z,49.87
2023-04-10T11:28:39.847Z,49.16
2023-04-10T11:29:39.812Z,49.27
2023-04-10T11:30:39.789Z,48.86
2023-04-10T11:31:39.812Z,48.71
2023-04-10T11:32:39.782Z,49.84
2023-04-10T11:33:39.719Z,49.21
2023-04-10T11:34:39.709Z,47.67
2023-04-10T11:35:39.695Z,48.78
2023-04-10T11:36:39.654Z,48.78
2023-04-10T11:37:39.607Z,48.99
2023-04-10T11:38:39.582Z,49.08
2023-04-10T11:39:39.559Z,49.52
2023-04-10T11:40:39.531Z,49.90
2023-04-10T11:41:39.527Z,48.68
2023-04-10T11:42:39.481Z,49.37
2023-04-10T11:43:39.458Z,49.16
2023-04-10T11:44:39.652Z,49.44
2023-04-10T11:45:39.426Z,49.52
2023-04-10T11:46:39.379Z,48.39
2023-04-10T11:47:39.413Z,47.96
2023-04-10T11:48:39.341Z,46.83
2023-04-10T11:49:39.301Z,46.83
2023-04-10T11:50:39.278Z,45.79
2023-04-10T11:51:39.262Z,45.39
2023-04-10T11:52:39.248Z,44.90
2023-04-10T11:53:39.209Z,45.35
2023-04-10T11:54:39.281Z,45.57
2023-04-10T11:55:39.149Z,46.10
2023-04-10T11:56:39.157Z,46.81
2023-04-10T11:57:39.107Z,47.70
2023-04-10T11:58:39.077Z,45.55
2023-04-10T11:59:39.065Z,46.48
2023-04-10T12:00:39.038Z,47.86
2023-04-10T12:01:41.984Z,45.33
2023-04-10T12:02:39.093Z,47.96
2023-04-10T12:03:39.061Z,48.54
2023-04-10T12:04:39.245Z,45.81
2023-04-10T12:05:38.902Z,45.59
2023-04-10T12:06:38.878Z,44.98
2023-04-10T12:07:38.853Z,45.57
2023-04-10T12:08:38.870Z,44.74
2023-04-10T12:09:38.804Z,44.74
2023-04-10T12:10:38.780Z,43.93
2023-04-10T12:11:38.754Z,43.60
2023-04-10T12:12:38.729Z,45.54
2023-04-10T12:13:38.726Z,44.62
2023-04-10T12:14:38.796Z,45.07
2023-04-10T12:15:38.701Z,45.67
2023-04-10T12:16:38.633Z,45.25
2023-04-10T12:17:38.630Z,45.12
2023-04-10T12:18:38.687Z,45.20
2023-04-10T12:19:38.556Z,45.41
2023-04-10T12:20:38.539Z,44.07
2023-04-10T12:21:38.510Z,44.09
2023-04-10T12:22:38.483Z,44.29
2023-04-10T12:23:38.467Z,43.89
2023-04-10T12:24:38.511Z,44.90
2023-04-10T12:25:38.410Z,42.90
2023-04-10T12:26:38.407Z,43.99
2023-04-10T12:27:38.364Z,44.98
2023-04-10T12:28:38.337Z,42.86
2023-04-10T12:29:38.318Z,42.03
2023-04-10T12:30:38.293Z,42.43
2023-04-10T12:31:38.345Z,42.35
2023-04-10T12:32:38.316Z,43.69
2023-04-10T12:33:38.223Z,44.20
2023-04-10T12:34:38.231Z,45.49
2023-04-10T12:35:38.197Z,44.09
2023-04-10T12:36:38.157Z,43.89
2023-04-10T12:37:38.122Z,42.86
2023-04-10T12:38:38.103Z,45.39
2023-04-10T12:39:38.083Z,45.14
2023-04-10T12:40:38.073Z,41.91
2023-04-10T12:41:38.032Z,43.10
2023-04-10T12:42:38.006Z,42.43
2023-04-10T12:43:37.981Z,43.73
2023-04-10T12:44:37.998Z,44.03
2023-04-10T12:45:37.936Z,42.49
2023-04-10T12:46:37.962Z,44.19
2023-04-10T12:47:37.914Z,43.26
2023-04-10T12:48:37.861Z,40.90
2023-04-10T12:49:37.836Z,41.91
2023-04-10T12:50:37.815Z,41.83
2023-04-10T12:51:37.790Z,41.30